createdAt,value
2019-01-02T00:03:59.912Z,69.07
2019-01-02T00:08:07.397Z,69.57
2019-01-02T00:12:15.515Z,69.67
2019-01-02T00:16:22.523Z,69.96
2019-01-02T00:20:29.461Z,69.38
2019-01-02T00:24:36.450Z,68.85
2019-01-02T00:28:52.800Z,68.00
2019-01-02T00:33:01.392Z,69.32
2019-01-02T00:37:08.450Z,69.41
2019-01-02T00:41:16.346Z,70.52
2019-01-02T00:45:24.218Z,74.01
2019-01-02T00:49:31.100Z,73.88
2019-01-02T00:53:41.173Z,73.67
2019-01-02T00:57:48.150Z,73.58
2019-01-02T01:01:55.081Z,72.87
2019-01-02T01:06:02.547Z,71.55
2019-01-02T01:10:14.905Z,71.62
2019-01-02T01:14:22.319Z,71.62
2019-01-02T01:18:29.322Z,71.69
2019-01-02T01:22:37.075Z,72.57
2019-01-02T01:26:44.054Z,74.14
2019-01-02T01:30:53.654Z,74.96
2019-01-02T01:35:00.643Z,74.91
2019-01-02T01:39:10.013Z,73.85
2019-01-02T01:43:20.621Z,74.56
2019-01-02T01:47:29.020Z,73.71
2019-01-02T01:51:37.097Z,72.18
2019-01-02T01:55:44.197Z,72.11
2019-01-02T01:59:58.015Z,70.49
2019-01-02T02:04:05.469Z,70.13
2019-01-02T02:08:12.460Z,68.85
2019-01-02T02:12:19.431Z,69.19
2019-01-02T02:16:26.872Z,70.25
2019-01-02T02:24:40.639Z,69.81
2019-01-02T02:28:48.043Z,69.06
2019-01-02T02:32:55.342Z,69.14
2019-01-02T02:37:02.330Z,68.67
2019-01-02T02:41:09.315Z,68.46
2019-01-02T02:45:17.913Z,68.69
2019-01-02T02:49:25.324Z,68.30
2019-01-02T02:53:32.471Z,68.66
2019-01-02T02:57:39.964Z,68.15
2019-01-02T03:01:48.126Z,67.81
2019-01-02T03:05:55.446Z,68.28
2019-01-02T03:10:04.064Z,68.63
2019-01-02T03:14:11.460Z,69.20
2019-01-02T03:18:18.805Z,69.25
2019-01-02T03:22:26.018Z,69.18
2019-01-02T03:26:33.357Z,69.33
2019-01-02T03:30:40.268Z,68.76
2019-01-02T03:34:47.578Z,69.03
2019-01-02T03:38:54.489Z,69.52
2019-01-02T03:43:01.415Z,68.87
2019-01-02T03:47:08.332Z,69.15
2019-01-02T03:51:15.352Z,68.79
2019-01-02T03:55:23.368Z,68.40
2019-01-02T03:59:33.459Z,68.59
2019-01-02T04:03:40.317Z,67.99
2019-01-02T04:07:59.121Z,68.20
2019-01-02T04:12:07.442Z,68.58
2019-01-02T04:16:14.613Z,68.60
2019-01-02T04:20:21.626Z,68.87
2019-01-02T04:24:28.453Z,68.72
2019-01-02T04:28:35.790Z,69.29
2019-01-02T04:32:42.801Z,69.34
2019-01-02T04:36:50.111Z,69.21
2019-01-02T04:40:57.094Z,69.66
2019-01-02T04:45:04.889Z,69.89
2019-01-02T04:49:12.000Z,70.65
2019-01-02T04:53:18.932Z,70.70
2019-01-02T04:57:25.897Z,70.64
2019-01-02T05:01:32.912Z,69.69
2019-01-02T05:05:39.936Z,69.90
2019-01-02T05:09:46.850Z,70.05
2019-01-02T05:13:53.717Z,69.97
2019-01-02T05:18:00.609Z,70.47
2019-01-02T05:22:09.455Z,70.33
2019-01-02T05:26:16.319Z,70.80
2019-01-02T05:30:23.230Z,70.68
2019-01-02T05:34:30.195Z,70.81
2019-01-02T05:38:37.184Z,70.67
2019-01-02T05:42:44.151Z,70.12
2019-01-02T05:46:51.195Z,70.23
2019-01-02T05:50:58.147Z,70.32
2019-01-02T05:55:07.828Z,70.03
2019-01-02T05:59:14.806Z,70.31
2019-01-02T06:03:21.752Z,70.41
2019-01-02T06:07:28.673Z,70.43
2019-01-02T06:11:35.748Z,70.63
2019-01-02T06:15:42.826Z,70.39
2019-01-02T06:19:49.855Z,71.08
2019-01-02T06:23:56.833Z,71.29
2019-01-02T06:28:03.923Z,71.39
2019-01-02T06:32:14.353Z,71.45
2019-01-02T06:36:21.551Z,71.83
2019-01-02T06:40:28.462Z,73.14
2019-01-02T06:44:35.357Z,74.33
2019-01-02T06:48:42.266Z,73.93
2019-01-02T06:52:49.305Z,71.98
2019-01-02T06:56:56.367Z,71.78
2019-01-02T07:01:03.382Z,71.80
2019-01-02T07:05:11.501Z,71.66
2019-01-02T07:09:18.465Z,71.61
2019-01-02T07:13:26.516Z,71.42
2019-01-02T07:17:33.655Z,71.57
2019-01-02T07:21:40.546Z,71.56
2019-01-02T07:25:47.398Z,71.75
2019-01-02T07:29:54.388Z,72.19
2019-01-02T07:34:24.751Z,74.76
2019-01-02T07:39:15.899Z,77.62
2019-01-02T07:44:04.001Z,83.16
2019-01-02T07:49:31.891Z,83.81
2019-01-02T07:55:02.516Z,85.03
2019-01-02T08:00:10.880Z,86.24
2019-01-02T08:05:13.271Z,85.97
2019-01-02T08:10:08.316Z,86.60
2019-01-02T08:15:11.824Z,87.02
2019-01-02T08:20:33.685Z,86.97
2019-01-02T08:25:48.790Z,87.03
2019-01-02T08:30:51.247Z,86.65
2019-01-02T08:35:48.588Z,86.76
2019-01-02T08:40:43.872Z,86.66
2019-01-02T08:45:37.834Z,85.60
2019-01-02T08:50:38.396Z,84.36
2019-01-02T08:55:35.115Z,83.86
2019-01-02T09:00:46.557Z,83.33
2019-01-02T09:05:42.992Z,83.44
2019-01-02T09:11:01.788Z,80.95
2019-01-02T09:15:38.246Z,81.32
2019-01-02T09:20:39.117Z,79.44
2019-01-02T09:25:43.559Z,76.50
2019-01-02T09:30:43.905Z,76.49
2019-01-02T09:35:55.473Z,75.02
2019-01-02T09:40:52.411Z,74.64
2019-01-02T09:45:59.505Z,73.80
2019-01-02T09:50:53.098Z,72.16
2019-01-02T09:56:01.288Z,72.40
2019-01-02T10:01:01.772Z,73.26
2019-01-02T10:06:03.550Z,72.98
2019-01-02T10:10:53.860Z,71.86
2019-01-02T10:16:15.434Z,71.70
2019-01-02T10:21:13.110Z,72.06
2019-01-02T10:26:18.729Z,72.18
2019-01-02T10:31:31.028Z,72.88
2019-01-02T10:36:20.019Z,73.69
2019-01-02T10:41:11.712Z,73.33
2019-01-02T10:46:30.812Z,73.13
2019-01-02T10:51:14.850Z,73.17
2019-01-02T10:56:45.539Z,73.50
2019-01-02T11:01:50.255Z,72.87
2019-01-02T11:06:47.579Z,72.40
2019-01-02T11:11:37.830Z,71.12
2019-01-02T11:16:33.072Z,71.30
2019-01-02T11:21:41.245Z,70.88
2019-01-02T11:27:05.115Z,68.93
2019-01-02T11:32:24.138Z,67.91
2019-01-02T11:37:51.344Z,67.52
2019-01-02T11:42:36.811Z,65.36
2019-01-02T11:46:45.812Z,62.29
2019-01-02T11:50:54.419Z,62.66
2019-01-02T11:55:01.796Z,60.59
2019-01-02T11:59:09.118Z,59.91
2019-01-02T12:03:16.403Z,57.45
2019-01-02T12:07:23.610Z,55.78
2019-01-02T12:11:30.871Z,57.58
2019-01-02T12:15:38.438Z,57.12
2019-01-02T12:19:45.458Z,57.07
2019-01-02T12:23:52.512Z,57.66
2019-01-02T12:28:01.890Z,57.99
2019-01-02T12:32:08.916Z,59.49
2019-01-02T12:36:15.945Z,59.29
2019-01-02T12:40:22.892Z,57.61
2019-01-02T12:44:31.043Z,57.52
2019-01-02T12:48:38.106Z,52.71
2019-01-02T12:52:45.202Z,52.75
2019-01-02T12:56:52.238Z,51.01
2019-01-02T13:01:13.004Z,51.36
2019-01-02T13:06:34.716Z,51.61
2019-01-02T13:11:04.720Z,49.21
2019-01-02T13:15:55.724Z,50.54
2019-01-02T13:20:43.851Z,51.12
2019-01-02T13:25:16.757Z,52.52
2019-01-02T13:30:07.218Z,52.73
2019-01-02T13:35:13.669Z,50.18
2019-01-02T13:39:33.097Z,50.03
2019-01-02T13:44:44.999Z,50.35
2019-01-02T13:49:35.783Z,49.98
2019-01-02T13:53:53.534Z,49.00
2019-01-02T13:58:03.542Z,48.01
2019-01-02T14:02:12.896Z,47.18
2019-01-02T14:06:19.977Z,47.91
2019-01-02T14:10:29.004Z,48.29
2019-01-02T14:14:38.754Z,48.72
2019-01-02T14:18:57.120Z,49.45
2019-01-02T14:23:09.869Z,49.87
2019-01-02T14:27:22.941Z,47.84
2019-01-02T14:31:30.324Z,47.98
2019-01-02T14:35:41.605Z,47.67
2019-01-02T14:39:54.746Z,46.99
2019-01-02T14:44:03.956Z,47.76
2019-01-02T14:48:11.112Z,48.13
2019-01-02T14:52:19.296Z,48.40
2019-01-02T14:56:28.850Z,47.74
2019-01-02T15:00:35.930Z,47.84
2019-01-02T15:04:42.918Z,47.04
2019-01-02T15:08:50.080Z,47.03
2019-01-02T15:12:57.145Z,47.25
2019-01-02T15:17:04.138Z,47.60
2019-01-02T15:21:11.598Z,48.34
2019-01-02T15:25:20.166Z,48.35
2019-01-02T15:29:27.480Z,48.95
2019-01-02T15:33:34.382Z,49.33
2019-01-02T15:37:41.569Z,49.68
2019-01-02T15:41:48.486Z,50.51
2019-01-02T15:45:56.514Z,50.31
2019-01-02T15:50:08.551Z,50.19
2019-01-02T15:54:15.669Z,50.73
2019-01-02T15:58:25.257Z,51.09
2019-01-02T16:02:35.187Z,51.00
2019-01-02T16:06:42.124Z,51.43
2019-01-02T16:10:49.702Z,51.74
2019-01-02T16:14:56.959Z,51.66
2019-01-02T16:19:06.175Z,52.41
2019-01-02T16:23:13.387Z,52.46
2019-01-02T16:27:20.527Z,53.02
2019-01-02T16:31:27.562Z,53.60
2019-01-02T16:35:34.647Z,53.46
2019-01-02T16:39:42.159Z,54.06
2019-01-02T16:43:52.709Z,53.70
2019-01-02T16:47:59.978Z,53.98
2019-01-02T16:52:07.033Z,54.02
2019-01-02T16:56:16.414Z,54.87
2019-01-02T17:00:26.480Z,54.61
2019-01-02T17:04:36.806Z,55.10
2019-01-02T17:08:43.814Z,55.32
2019-01-02T17:12:52.868Z,54.82
2019-01-02T17:16:59.705Z,55.25
2019-01-02T17:21:07.561Z,55.00
2019-01-02T17:25:14.903Z,54.88
2019-01-02T17:29:24.215Z,54.63
2019-01-02T17:33:34.533Z,55.01
2019-01-02T17:37:41.795Z,55.21
2019-01-02T17:41:48.859Z,55.48
2019-01-02T17:45:55.940Z,55.53
2019-01-02T17:50:05.997Z,55.57
2019-01-02T17:54:14.786Z,55.83
2019-01-02T17:58:22.965Z,55.73
2019-01-02T18:02:30.131Z,55.92
2019-01-02T18:06:38.656Z,55.93
2019-01-02T18:10:45.882Z,56.50
2019-01-02T18:14:53.138Z,56.54
2019-01-02T18:19:00.531Z,56.78
2019-01-02T18:23:08.363Z,57.49
2019-01-02T18:27:15.353Z,57.13
2019-01-02T18:31:22.380Z,57.43
2019-01-02T18:35:29.559Z,57.43
2019-01-02T18:39:37.343Z,57.87
2019-01-02T18:43:45.741Z,57.87
2019-01-02T18:47:52.809Z,62.39
2019-01-02T18:52:01.963Z,64.03
2019-01-02T18:56:12.370Z,59.16
2019-01-02T19:00:25.302Z,58.59
2019-01-02T19:04:32.387Z,58.86
2019-01-02T19:08:39.927Z,59.08
2019-01-02T19:12:47.106Z,58.99
2019-01-02T19:16:54.049Z,59.33
2019-01-02T19:21:01.510Z,59.47
2019-01-02T19:25:17.690Z,59.42
2019-01-02T19:29:25.293Z,59.13
2019-01-02T19:33:32.538Z,59.71
2019-01-02T19:37:39.619Z,59.95
2019-01-02T19:41:46.639Z,60.31
2019-01-02T19:45:53.838Z,60.65
2019-01-02T19:50:01.360Z,60.31
2019-01-02T19:54:16.420Z,60.19
2019-01-02T19:58:29.938Z,60.57
2019-01-02T20:02:37.178Z,60.88
2019-01-02T20:06:50.766Z,60.75
2019-01-02T20:11:02.542Z,60.46
2019-01-02T20:15:13.578Z,61.04
2019-01-02T20:19:21.884Z,60.97
2019-01-02T20:23:29.442Z,60.77
2019-01-02T20:27:37.954Z,61.04
2019-01-02T20:31:46.333Z,60.87
2019-01-02T20:35:55.719Z,60.67
2019-01-02T20:40:03.477Z,60.68
2019-01-02T20:44:10.402Z,60.60
2019-01-02T20:48:17.534Z,60.41
2019-01-02T20:52:25.254Z,60.14
2019-01-02T20:56:32.825Z,60.60
2019-01-02T21:00:45.590Z,59.95
2019-01-02T21:04:52.738Z,60.26
2019-01-02T21:09:02.638Z,60.09
2019-01-02T21:13:11.200Z,60.11
2019-01-02T21:17:18.339Z,59.91
2019-01-02T21:21:29.297Z,59.96
2019-01-02T21:25:37.869Z,60.06
2019-01-02T21:29:45.001Z,59.85
2019-01-02T21:33:56.992Z,59.81
2019-01-02T21:38:04.028Z,60.04
2019-01-02T21:42:11.095Z,60.08
2019-01-02T21:46:18.088Z,59.74
2019-01-02T21:50:24.969Z,60.00
2019-01-02T21:54:31.944Z,59.77
2019-01-02T21:58:40.678Z,59.71
2019-01-02T22:02:47.985Z,62.63
2019-01-02T22:06:56.394Z,60.14
2019-01-02T22:11:03.327Z,59.75
2019-01-02T22:15:14.225Z,60.26
2019-01-02T22:19:21.248Z,60.13
2019-01-02T22:23:31.293Z,60.33
2019-01-02T22:27:38.543Z,60.49
2019-01-02T22:31:45.574Z,60.61
2019-01-02T22:35:52.748Z,60.38
2019-01-02T22:40:02.090Z,61.15
2019-01-02T22:44:10.143Z,61.53
2019-01-02T22:48:17.041Z,60.97
2019-01-02T22:52:25.655Z,61.34
2019-01-02T22:56:32.564Z,61.00
2019-01-02T23:01:03.659Z,62.36
2019-01-02T23:05:33.130Z,61.19
2019-01-02T23:10:06.382Z,61.60
2019-01-02T23:14:32.283Z,60.75
2019-01-02T23:18:58.213Z,61.01
2019-01-02T23:23:23.150Z,60.65
2019-01-02T23:27:45.590Z,60.78
2019-01-02T23:32:10.099Z,60.70
2019-01-02T23:36:32.366Z,60.79
2019-01-02T23:40:58.297Z,61.02
2019-01-02T23:45:23.162Z,60.69
2019-01-02T23:49:44.155Z,60.68
2019-01-02T23:54:10.049Z,60.83
2019-01-02T23:58:34.856Z,61.95
